createdAt,value
2017-11-13T00:00:20.604Z,999.93
2017-11-13T00:01:00.964Z,999.98
2017-11-13T00:01:41.356Z,1000
2017-11-13T00:02:21.815Z,999.95
2017-11-13T00:03:02.260Z,999.99
2017-11-13T00:03:42.781Z,999.98
2017-11-13T00:04:23.130Z,1000
2017-11-13T00:05:03.529Z,1000.04
2017-11-13T00:05:43.901Z,999.98
2017-11-13T00:06:24.327Z,1000.01
2017-11-13T00:07:04.746Z,1000.03
2017-11-13T00:07:45.162Z,1000.01
2017-11-13T00:08:25.546Z,1000.04
2017-11-13T00:09:05.923Z,1000.02
2017-11-13T00:09:46.395Z,1000.03
2017-11-13T00:10:26.826Z,1000
2017-11-13T00:11:07.259Z,1000.1
2017-11-13T00:11:47.621Z,1000.09
2017-11-13T00:12:28.070Z,1000.13
2017-11-13T00:13:08.498Z,1000.13
2017-11-13T00:13:49.000Z,1000.12
2017-11-13T00:14:29.418Z,1000.1
2017-11-13T00:15:09.792Z,1000.15
2017-11-13T00:15:50.238Z,1000.07
2017-11-13T00:16:30.646Z,1000.11
2017-11-13T00:17:11.088Z,1000.13
2017-11-13T00:17:51.468Z,1000.13
2017-11-13T00:18:31.883Z,1000.11
2017-11-13T00:19:12.325Z,1000.15
2017-11-13T00:19:52.639Z,1000.17
2017-11-13T00:20:33.086Z,1000.14
2017-11-13T00:21:13.628Z,1000.18
2017-11-13T00:21:54.056Z,1000.16
2017-11-13T00:22:34.432Z,1000.18
2017-11-13T00:23:14.865Z,1000.22
2017-11-13T00:23:55.396Z,1000.18
2017-11-13T00:24:35.674Z,1000.2
2017-11-13T00:25:16.061Z,1000.1
2017-11-13T00:25:56.553Z,1000.08
2017-11-13T00:26:37.094Z,1000.18
2017-11-13T00:27:17.516Z,1000.21
2017-11-13T00:27:57.899Z,1000.21
2017-11-13T00:28:38.359Z,1000.22
2017-11-13T00:29:18.697Z,1000.31
2017-11-13T00:29:59.142Z,1000.27
2017-11-13T00:30:39.558Z,1000.28
2017-11-13T00:31:20.028Z,1000.26
2017-11-13T00:32:00.532Z,1000.31
2017-11-13T00:32:40.885Z,1000.38
2017-11-13T00:33:21.221Z,1000.37
2017-11-13T00:34:01.627Z,1000.35
2017-11-13T00:34:42.084Z,1000.38
2017-11-13T00:35:22.581Z,1000.33
2017-11-13T00:36:03.017Z,1000.45
2017-11-13T00:36:43.451Z,1000.41
2017-11-13T00:37:23.887Z,1000.42
2017-11-13T00:38:04.268Z,1000.47
2017-11-13T00:38:44.662Z,1000.45
2017-11-13T00:39:25.162Z,1000.48
2017-11-13T00:40:05.545Z,1000.48
2017-11-13T00:40:45.894Z,1000.48
2017-11-13T00:41:26.267Z,1000.49
2017-11-13T00:42:06.753Z,1000.49
2017-11-13T00:42:47.121Z,1000.44
2017-11-13T00:43:27.548Z,1000.52
2017-11-13T00:44:07.919Z,1000.52
2017-11-13T00:44:48.374Z,1000.5
2017-11-13T00:45:28.777Z,1000.53
2017-11-13T00:46:09.271Z,1000.52
2017-11-13T00:46:49.771Z,1000.5
2017-11-13T00:47:30.322Z,1000.54
2017-11-13T00:48:10.652Z,1000.54
2017-11-13T00:48:51.117Z,1000.49
2017-11-13T00:49:31.481Z,1000.61
2017-11-13T00:50:11.829Z,1000.57
2017-11-13T00:50:52.268Z,1000.62
2017-11-13T00:51:32.789Z,1000.62
2017-11-13T00:52:13.178Z,1000.61
2017-11-13T00:52:53.778Z,1000.66
2017-11-13T00:53:34.040Z,1000.64
2017-11-13T00:54:14.425Z,1000.64
2017-11-13T00:54:54.874Z,1000.61
2017-11-13T00:55:35.358Z,1000.66
2017-11-13T00:56:15.750Z,1000.65
2017-11-13T00:56:56.194Z,1000.71
2017-11-13T00:57:36.589Z,1000.68
2017-11-13T00:58:17.112Z,1000.73
2017-11-13T00:58:57.484Z,1000.68
2017-11-13T00:59:37.934Z,1000.73
2017-11-13T01:00:18.350Z,1000.74
2017-11-13T01:00:58.811Z,1000.68
2017-11-13T01:01:39.192Z,1000.72
2017-11-13T01:02:19.671Z,1000.72
2017-11-13T01:03:00.053Z,1000.71
2017-11-13T01:03:40.484Z,1000.74
2017-11-13T01:04:20.897Z,1000.71
2017-11-13T01:05:01.439Z,1000.8
2017-11-13T01:05:41.866Z,1000.79
2017-11-13T01:06:22.276Z,1000.82
2017-11-13T01:07:02.701Z,1000.78
2017-11-13T01:07:43.061Z,1000.83
2017-11-13T01:08:23.464Z,1000.84
2017-11-13T01:09:03.902Z,1000.8
2017-11-13T01:09:44.262Z,1000.88
2017-11-13T01:10:24.644Z,1000.87
2017-11-13T01:11:05.066Z,1000.84
2017-11-13T01:11:45.502Z,1000.86
2017-11-13T01:12:25.959Z,1000.86
2017-11-13T01:13:06.363Z,1000.88
2017-11-13T01:13:46.723Z,1000.88
2017-11-13T01:14:27.128Z,1000.88
2017-11-13T01:15:07.520Z,1000.86
2017-11-13T01:15:48.047Z,1000.92
2017-11-13T01:16:28.426Z,1000.93
2017-11-13T01:17:08.779Z,1000.92
2017-11-13T01:17:49.200Z,1000.95
2017-11-13T01:18:29.610Z,1000.95
2017-11-13T01:19:10.042Z,1000.91
2017-11-13T01:19:50.533Z,1000.96
2017-11-13T01:20:30.917Z,1000.94
2017-11-13T01:21:11.351Z,1001.03
2017-11-13T01:21:51.832Z,1001.01
2017-11-13T01:22:32.174Z,1000.99
2017-11-13T01:23:12.623Z,1001
2017-11-13T01:23:52.984Z,1001.03
2017-11-13T01:24:33.441Z,1001.01
2017-11-13T01:25:13.848Z,1001.05
2017-11-13T01:25:54.319Z,1001.06
2017-11-13T01:26:34.713Z,1001.07
2017-11-13T01:27:15.158Z,1001.04
2017-11-13T01:27:55.530Z,1001.12
2017-11-13T01:28:35.970Z,1001.11
2017-11-13T01:29:16.376Z,1001.1
2017-11-13T01:29:56.807Z,1001.1
2017-11-13T01:30:37.146Z,1001.07
2017-11-13T01:31:17.629Z,1001.11
2017-11-13T01:31:58.041Z,1001.08
2017-11-13T01:32:38.381Z,1001.14
2017-11-13T01:33:18.841Z,1001.15
2017-11-13T01:33:59.238Z,1001.11
2017-11-13T01:34:39.625Z,1001.13
2017-11-13T01:35:19.981Z,1001.12
2017-11-13T01:36:00.425Z,1001.13
2017-11-13T01:36:40.832Z,1001.14
2017-11-13T01:37:21.195Z,1001.13
2017-11-13T01:38:01.624Z,1001.13
2017-11-13T01:38:42.105Z,1001.17
2017-11-13T01:39:22.532Z,1001.17
2017-11-13T01:40:02.981Z,1001.15
2017-11-13T01:40:43.482Z,1001.15
2017-11-13T01:41:23.902Z,1001.18
2017-11-13T01:42:04.299Z,1001.16
2017-11-13T01:42:44.738Z,1001.15
2017-11-13T01:43:25.155Z,1001.17
2017-11-13T01:44:05.533Z,1001.17
2017-11-13T01:44:46.063Z,1001.2
2017-11-13T01:45:26.428Z,1001.24
2017-11-13T01:46:06.846Z,1001.26
2017-11-13T01:46:47.259Z,1001.15
2017-11-13T01:47:27.653Z,1001.14
2017-11-13T01:48:08.061Z,1001.2
2017-11-13T01:48:48.455Z,1001.21
2017-11-13T01:49:28.944Z,1001.25
2017-11-13T01:50:09.322Z,1001.29
2017-11-13T01:50:49.733Z,1001.25
2017-11-13T01:51:30.138Z,1001.29
2017-11-13T01:52:10.597Z,1001.22
2017-11-13T01:52:51.061Z,1001.22
2017-11-13T01:53:31.456Z,1001.24
2017-11-13T01:55:51.276Z,1001.24
2017-11-13T01:56:33.614Z,1001.28
2017-11-13T01:57:14.053Z,1001.28
2017-11-13T01:57:54.513Z,1001.29
2017-11-13T01:58:34.950Z,1001.28
2017-11-13T01:59:15.319Z,1001.27
2017-11-13T01:59:55.697Z,1001.31
2017-11-13T02:00:36.081Z,1001.3
2017-11-13T02:01:16.445Z,1001.26
2017-11-13T02:01:57.037Z,1001.29
2017-11-13T02:02:37.379Z,1001.26
2017-11-13T02:03:17.644Z,1001.27
2017-11-13T02:03:58.052Z,1001.29
2017-11-13T02:04:38.477Z,1001.27
2017-11-13T02:05:19.012Z,1001.29
2017-11-13T02:05:59.590Z,1001.29
2017-11-13T02:06:39.935Z,1001.32
2017-11-13T02:07:20.363Z,1001.37
2017-11-13T02:08:00.753Z,1001.4
2017-11-13T02:08:41.229Z,1001.42
2017-11-13T02:09:21.630Z,1001.42
2017-11-13T02:10:02.046Z,1001.44
2017-11-13T02:10:42.472Z,1001.48
2017-11-13T02:11:22.912Z,1001.4
2017-11-13T02:12:03.370Z,1001.49
2017-11-13T02:12:43.864Z,1001.46
2017-11-13T02:13:24.220Z,1001.49
2017-11-13T02:14:04.656Z,1001.5
2017-11-13T02:14:45.020Z,1001.5
2017-11-13T02:15:25.448Z,1001.54
2017-11-13T02:16:05.841Z,1001.57
2017-11-13T02:16:46.360Z,1001.53
2017-11-13T02:17:26.755Z,1001.54
2017-11-13T02:18:07.196Z,1001.62
2017-11-13T02:18:47.551Z,1001.6
2017-11-13T02:19:27.936Z,1001.57
2017-11-13T02:20:08.496Z,1001.57
2017-11-13T02:20:48.892Z,1001.58
2017-11-13T02:21:29.306Z,1001.59
2017-11-13T02:22:09.686Z,1001.61
2017-11-13T02:22:50.118Z,1001.62
2017-11-13T02:23:30.497Z,1001.62
2017-11-13T02:24:10.990Z,1001.65
2017-11-13T02:24:51.322Z,1001.66
2017-11-13T02:25:31.784Z,1001.66
2017-11-13T02:26:12.207Z,1001.62
2017-11-13T02:26:52.656Z,1001.6
2017-11-13T02:27:33.081Z,1001.7
2017-11-13T02:28:13.514Z,1001.68
2017-11-13T02:28:54.056Z,1001.68
2017-11-13T02:29:34.612Z,1001.6
2017-11-13T02:30:15.010Z,1001.7
2017-11-13T02:30:55.339Z,1001.75
2017-11-13T02:31:35.790Z,1001.79
2017-11-13T02:32:16.171Z,1001.79
2017-11-13T02:32:56.600Z,1001.79
2017-11-13T02:33:37.015Z,1001.77
2017-11-13T02:34:17.542Z,1001.84
2017-11-13T02:34:57.885Z,1001.8
2017-11-13T02:35:38.293Z,1001.8
2017-11-13T02:36:18.683Z,1001.77
2017-11-13T02:36:59.181Z,1001.75
2017-11-13T02:37:39.746Z,1001.83
2017-11-13T02:38:20.084Z,1001.81
2017-11-13T02:39:00.498Z,1001.84
2017-11-13T02:39:41.196Z,1001.84
2017-11-13T02:40:21.391Z,1001.84
2017-11-13T02:41:01.859Z,1001.86
2017-11-13T02:41:42.281Z,1001.85
2017-11-13T02:42:22.684Z,1001.87
2017-11-13T02:43:03.105Z,1001.82
2017-11-13T02:43:43.530Z,1001.86
2017-11-13T02:44:23.928Z,1001.86
2017-11-13T02:45:04.441Z,1001.88
2017-11-13T02:45:44.781Z,1001.9
2017-11-13T02:46:25.215Z,1001.85
2017-11-13T02:47:05.559Z,1001.87
2017-11-13T02:47:45.964Z,1001.95
2017-11-13T02:48:26.382Z,1001.93
2017-11-13T02:49:06.826Z,1001.93
2017-11-13T02:49:47.220Z,1001.91
2017-11-13T02:50:27.706Z,1001.93
2017-11-13T02:51:08.095Z,1001.98
2017-11-13T02:51:48.505Z,1002.01
2017-11-13T02:52:28.965Z,1001.93
2017-11-13T02:53:09.395Z,1001.93
2017-11-13T02:53:49.844Z,1002.03
2017-11-13T02:54:30.305Z,1002
2017-11-13T02:55:10.606Z,1002.04
2017-11-13T02:55:51.039Z,1002.05
2017-11-13T02:56:31.434Z,1002.05
2017-11-13T02:57:11.835Z,1002.1
2017-11-13T02:57:52.318Z,1002.12
2017-11-13T02:58:32.690Z,1002.13
2017-11-13T02:59:13.161Z,1002.17
2017-11-13T02:59:53.588Z,1002.2
2017-11-13T03:00:33.928Z,1002.2
2017-11-13T03:01:14.397Z,1002.19
2017-11-13T03:01:54.770Z,1002.21
2017-11-13T03:02:35.209Z,1002.21
2017-11-13T03:03:15.529Z,1002.24
2017-11-13T03:03:55.926Z,1002.22
2017-11-13T03:04:36.357Z,1002.28
2017-11-13T03:05:16.744Z,1002.26
2017-11-13T03:05:57.188Z,1002.3
2017-11-13T03:06:37.570Z,1002.32
2017-11-13T03:07:18.043Z,1002.35
2017-11-13T03:07:58.437Z,1002.32
2017-11-13T03:08:38.819Z,1002.4
2017-11-13T03:09:19.232Z,1002.38
2017-11-13T03:09:59.706Z,1002.35
2017-11-13T03:10:40.118Z,1002.37
2017-11-13T03:11:20.586Z,1002.42
2017-11-13T03:12:00.903Z,1002.4
2017-11-13T03:12:41.262Z,1002.35
2017-11-13T03:13:21.639Z,1002.37
2017-11-13T03:14:02.087Z,1002.4
2017-11-13T03:14:42.465Z,1002.34
2017-11-13T03:15:22.850Z,1002.43
2017-11-13T03:16:03.260Z,1002.42
2017-11-13T03:16:43.739Z,1002.39
2017-11-13T03:17:24.124Z,1002.38
2017-11-13T03:18:04.517Z,1002.38
2017-11-13T03:18:45.077Z,1002.48
2017-11-13T03:19:25.525Z,1002.46
2017-11-13T03:20:05.929Z,1002.46
2017-11-13T03:20:46.300Z,1002.49
2017-11-13T03:21:26.772Z,1002.47
2017-11-13T03:22:07.158Z,1002.44
2017-11-13T03:22:47.504Z,1002.47
2017-11-13T03:23:27.985Z,1002.54
2017-11-13T03:24:08.473Z,1002.5
2017-11-13T03:24:48.948Z,1002.49
2017-11-13T03:25:29.295Z,1002.48
2017-11-13T03:26:09.616Z,1002.56
2017-11-13T03:26:50.068Z,1002.56
2017-11-13T03:27:30.547Z,1002.58
2017-11-13T03:28:10.983Z,1002.55
2017-11-13T03:28:51.459Z,1002.57
2017-11-13T03:29:31.937Z,1002.61
2017-11-13T03:30:12.245Z,1002.58
2017-11-13T03:30:52.747Z,1002.61
2017-11-13T03:31:33.180Z,1002.57
2017-11-13T03:32:13.566Z,1002.57
2017-11-13T03:32:53.978Z,1002.66
2017-11-13T03:33:34.382Z,1002.64
2017-11-13T03:34:14.765Z,1002.6
2017-11-13T03:34:55.172Z,1002.61
2017-11-13T03:35:35.620Z,1002.58
2017-11-13T03:36:16.026Z,1002.62
2017-11-13T03:36:56.412Z,1002.57
2017-11-13T03:37:36.831Z,1002.59
2017-11-13T03:38:17.273Z,1002.64
2017-11-13T03:38:57.749Z,1002.64
2017-11-13T03:39:38.059Z,1002.67
2017-11-13T03:40:18.510Z,1002.72
2017-11-13T03:40:58.926Z,1002.74
2017-11-13T03:41:39.360Z,1002.65
2017-11-13T03:42:19.804Z,1002.67
2017-11-13T03:43:00.158Z,1002.7
2017-11-13T03:43:40.605Z,1002.73
2017-11-13T03:44:21.082Z,1002.68
2017-11-13T03:45:01.502Z,1002.71
2017-11-13T03:45:41.928Z,1002.71
2017-11-13T03:46:22.343Z,1002.74
2017-11-13T03:47:02.735Z,1002.77
2017-11-13T03:47:43.140Z,1002.79
2017-11-13T03:48:23.599Z,1002.76
2017-11-13T03:49:04.034Z,1002.79
2017-11-13T03:49:44.461Z,1002.82
2017-11-13T03:50:24.777Z,1002.83
2017-11-13T03:51:05.293Z,1002.82
2017-11-13T03:51:45.669Z,1002.8
2017-11-13T03:52:26.083Z,1002.76
2017-11-13T03:53:06.485Z,1002.86
2017-11-13T03:53:46.964Z,1002.84
2017-11-13T03:54:27.451Z,1002.84
2017-11-13T03:55:07.842Z,1002.88
2017-11-13T03:55:48.312Z,1002.83
2017-11-13T03:56:28.887Z,1002.9
2017-11-13T03:57:09.220Z,1002.87
2017-11-13T03:57:49.682Z,1002.98
2017-11-13T03:58:30.156Z,1002.98
2017-11-13T03:59:10.521Z,1002.92
2017-11-13T03:59:51.046Z,1002.95
2017-11-13T04:00:31.611Z,1002.99
2017-11-13T04:01:12.050Z,1002.99
2017-11-13T04:41:34.374Z,1003.5
2017-11-13T04:42:20.407Z,1003.55
2017-11-13T04:43:00.902Z,1003.53
2017-11-13T04:43:41.263Z,1003.56
2017-11-13T04:44:21.642Z,1003.51
2017-11-13T04:45:02.003Z,1003.56
2017-11-13T04:45:42.404Z,1003.56
2017-11-13T04:46:22.788Z,1003.59
2017-11-13T04:47:03.300Z,1003.61
2017-11-13T04:47:43.686Z,1003.63
2017-11-13T04:48:24.068Z,1003.63
2017-11-13T04:49:04.533Z,1003.65
2017-11-13T04:49:44.944Z,1003.69
2017-11-13T04:50:25.390Z,1003.71
2017-11-13T04:51:05.808Z,1003.71
2017-11-13T04:51:46.232Z,1003.7
2017-11-13T04:52:26.727Z,1003.68
2017-11-13T04:53:07.113Z,1003.7
2017-11-13T04:53:47.526Z,1003.69
2017-11-13T04:54:28.041Z,1003.72
2017-11-13T04:55:08.486Z,1003.72
2017-11-13T04:55:48.880Z,1003.77
2017-11-13T04:56:29.259Z,1003.78
2017-11-13T04:57:09.762Z,1003.79
2017-11-13T04:57:50.201Z,1003.86
2017-11-13T04:58:30.753Z,1003.85
2017-11-13T04:59:11.129Z,1003.92
2017-11-13T04:59:51.547Z,1003.92
2017-11-13T05:00:31.908Z,1003.97
2017-11-13T05:01:12.299Z,1003.95
2017-11-13T05:01:52.856Z,1003.98
2017-11-13T05:02:33.305Z,1003.98
2017-11-13T05:03:13.588Z,1003.99
2017-11-13T05:03:54.027Z,1004
2017-11-13T05:04:34.385Z,1004.01
2017-11-13T05:05:14.843Z,1004.04
2017-11-13T05:05:55.382Z,1004.05
2017-11-13T05:06:35.711Z,1004.08
2017-11-13T05:07:16.149Z,1004.05
2017-11-13T05:07:56.617Z,1004.04
2017-11-13T05:08:37.044Z,1004.05
2017-11-13T05:09:17.441Z,1004.04
2017-11-13T05:09:57.866Z,1004.07
2017-11-13T05:10:38.311Z,1004.09
2017-11-13T05:11:18.669Z,1004.08
2017-11-13T05:11:59.132Z,1004.06
2017-11-13T05:12:39.592Z,1004.09
2017-11-13T05:13:19.956Z,1004.16
2017-11-13T05:14:00.533Z,1004.11
2017-11-13T05:14:41.028Z,1004.15
2017-11-13T05:15:21.378Z,1004.14
2017-11-13T05:16:01.908Z,1004.16
2017-11-13T05:16:42.333Z,1004.15
2017-11-13T05:17:22.970Z,1004.16
2017-11-13T05:18:03.237Z,1004.2
2017-11-13T05:18:43.713Z,1004.2
2017-11-13T05:19:24.153Z,1004.22
2017-11-13T05:20:04.572Z,1004.22
2017-11-13T05:20:45.055Z,1004.23
2017-11-13T05:21:25.368Z,1004.21
2017-11-13T05:22:05.828Z,1004.2
2017-11-13T05:22:46.196Z,1004.21
2017-11-13T05:23:26.741Z,1004.25
2017-11-13T05:24:07.263Z,1004.26
2017-11-13T05:24:47.636Z,1004.28
2017-11-13T05:25:28.008Z,1004.27
2017-11-13T05:26:08.428Z,1004.21
2017-11-13T05:26:48.926Z,1004.24
2017-11-13T05:27:29.270Z,1004.27
2017-11-13T05:28:09.653Z,1004.24
2017-11-13T05:28:50.125Z,1004.27
2017-11-13T05:29:30.533Z,1004.28
2017-11-13T05:30:10.909Z,1004.34
2017-11-13T05:30:51.359Z,1004.34
2017-11-13T05:31:31.745Z,1004.35
2017-11-13T05:32:12.111Z,1004.38
2017-11-13T05:32:52.542Z,1004.34
2017-11-13T05:33:32.947Z,1004.33
2017-11-13T05:34:13.409Z,1004.35
2017-11-13T05:34:53.878Z,1004.39
2017-11-13T05:35:34.222Z,1004.39
2017-11-13T05:36:14.647Z,1004.4
2017-11-13T05:36:55.104Z,1004.4
2017-11-13T05:37:35.558Z,1004.38
2017-11-13T05:38:15.974Z,1004.37
2017-11-13T05:38:56.425Z,1004.42
2017-11-13T05:39:36.882Z,1004.42
2017-11-13T05:40:17.234Z,1004.37
2017-11-13T05:40:57.673Z,1004.47
2017-11-13T05:41:38.117Z,1004.46
2017-11-13T05:42:18.517Z,1004.45
2017-11-13T05:42:58.935Z,1004.46
2017-11-13T05:43:39.305Z,1004.53
2017-11-13T05:44:19.728Z,1004.55
2017-11-13T05:45:00.336Z,1004.52
2017-11-13T05:45:40.816Z,1004.55
2017-11-13T05:46:21.255Z,1004.58
2017-11-13T05:47:01.712Z,1004.58
2017-11-13T05:47:42.173Z,1004.58
2017-11-13T05:48:22.543Z,1004.58
2017-11-13T05:49:02.948Z,1004.61
2017-11-13T05:49:43.398Z,1004.59
2017-11-13T05:50:23.896Z,1004.59
2017-11-13T05:51:04.312Z,1004.61
2017-11-13T05:51:44.720Z,1004.63
2017-11-13T05:52:25.235Z,1004.64
2017-11-13T05:53:05.676Z,1004.68
2017-11-13T05:53:46.231Z,1004.72
2017-11-13T05:54:26.610Z,1004.72
2017-11-13T05:55:06.989Z,1004.7
2017-11-13T05:55:47.343Z,1004.69
2017-11-13T05:56:27.768Z,1004.75
2017-11-13T05:57:08.244Z,1004.8
2017-11-13T05:57:48.705Z,1004.87
2017-11-13T05:58:29.196Z,1004.88
2017-11-13T05:59:09.552Z,1004.88
2017-11-13T05:59:50.122Z,1004.8
2017-11-13T06:00:30.540Z,1004.75
2017-11-13T06:01:10.950Z,1004.72
2017-11-13T06:01:51.365Z,1004.68
2017-11-13T06:02:32.018Z,1004.61
2017-11-13T06:03:12.428Z,1004.59
2017-11-13T06:05:21.479Z,1004.65
2017-11-13T06:06:18.355Z,1004.56
2017-11-13T06:07:19.235Z,1004.61
2017-11-13T06:08:26.223Z,1004.61
2017-11-13T06:11:00.066Z,1004.61
2017-11-13T06:11:40.573Z,1004.57
2017-11-13T06:12:22.198Z,1004.68
2017-11-13T06:13:02.301Z,1004.64
2017-11-13T06:13:42.961Z,1004.66
2017-11-13T06:14:23.787Z,1004.65
2017-11-13T06:15:05.291Z,1004.65
2017-11-13T06:15:45.117Z,1004.69
2017-11-13T06:16:28.302Z,1004.66
2017-11-13T06:17:09.699Z,1004.7
2017-11-13T06:17:50.750Z,1004.76
2017-11-13T06:18:30.763Z,1004.71
2017-11-13T06:19:11.402Z,1004.71
2017-11-13T06:19:52.745Z,1004.75
2017-11-13T06:20:33.260Z,1004.8
2017-11-13T06:21:13.631Z,1004.8
2017-11-13T06:21:54.285Z,1004.77
2017-11-13T06:22:34.899Z,1004.78
2017-11-13T06:23:15.472Z,1004.81
2017-11-13T06:23:55.765Z,1004.8
2017-11-13T06:24:36.236Z,1004.83
2017-11-13T06:25:16.672Z,1004.83
2017-11-13T06:25:57.051Z,1004.9
2017-11-13T06:26:37.627Z,1004.96
2017-11-13T06:27:18.129Z,1004.94
2017-11-13T06:27:58.666Z,1004.99
2017-11-13T06:28:39.171Z,1004.97
2017-11-13T06:29:19.437Z,1004.98
2017-11-13T06:29:59.943Z,1005.03
2017-11-13T06:30:40.451Z,1005.04
2017-11-13T06:31:20.959Z,1005.07
2017-11-13T06:32:01.366Z,1005.05
2017-11-13T06:32:41.790Z,1005.03
2017-11-13T06:33:22.305Z,1005.07
2017-11-13T06:34:02.713Z,1005.09
2017-11-13T06:34:43.126Z,1005.11
2017-11-13T06:35:23.533Z,1005.15
2017-11-13T06:36:04.143Z,1005.15
2017-11-13T06:36:44.575Z,1005.16
2017-11-13T06:37:25.072Z,1005.2
2017-11-13T06:38:06.926Z,1005.17
2017-11-13T06:38:48.506Z,1005.25
2017-11-13T06:39:29.259Z,1005.25
2017-11-13T06:40:09.717Z,1005.26
2017-11-13T06:40:50.235Z,1005.27
2017-11-13T06:41:31.713Z,1005.35
2017-11-13T06:42:12.089Z,1005.35
2017-11-13T06:42:52.614Z,1005.35
2017-11-13T06:43:33.043Z,1005.38
2017-11-13T06:44:13.441Z,1005.41
2017-11-13T06:44:54.208Z,1005.38
2017-11-13T06:45:35.135Z,1005.36
2017-11-13T06:46:15.750Z,1005.39
2017-11-13T06:46:56.161Z,1005.37
2017-11-13T06:47:36.698Z,1005.49
2017-11-13T06:48:17.253Z,1005.42
2017-11-13T06:48:58.915Z,1005.47
2017-11-13T06:49:39.792Z,1005.51
2017-11-13T06:50:20.173Z,1005.48
2017-11-13T06:51:01.213Z,1005.53
2017-11-13T06:51:41.784Z,1005.49
2017-11-13T06:52:22.217Z,1005.52
2017-11-13T06:53:02.736Z,1005.55
2017-11-13T06:53:44.241Z,1005.53
2017-11-13T06:54:25.194Z,1005.54
2017-11-13T06:55:05.176Z,1005.58
2017-11-13T06:55:45.605Z,1005.59
2017-11-13T06:56:26.626Z,1005.57
2017-11-13T06:57:06.649Z,1005.6
2017-11-13T06:57:47.453Z,1005.55
2017-11-13T06:58:29.049Z,1005.57
2017-11-13T06:59:09.407Z,1005.67
2017-11-13T06:59:49.904Z,1005.62
2017-11-13T07:00:30.521Z,1005.61
2017-11-13T07:01:11.018Z,1005.67
2017-11-13T07:01:51.707Z,1005.62
2017-11-13T07:02:32.281Z,1005.64
2017-11-13T07:03:12.972Z,1005.64
2017-11-13T07:03:53.330Z,1005.64
2017-11-13T07:04:33.711Z,1005.59
2017-11-13T07:05:14.150Z,1005.64
2017-11-13T07:05:54.558Z,1005.68
2017-11-13T07:06:35.101Z,1005.63
2017-11-13T07:07:15.446Z,1005.67
2017-11-13T07:07:55.966Z,1005.63
2017-11-13T07:08:36.439Z,1005.65
2017-11-13T07:09:16.946Z,1005.63
2017-11-13T07:09:57.319Z,1005.65
2017-11-13T07:10:37.731Z,1005.7
2017-11-13T07:11:18.238Z,1005.68
2017-11-13T07:11:58.571Z,1005.71
2017-11-13T07:12:39.213Z,1005.72
2017-11-13T07:13:19.582Z,1005.66
2017-11-13T07:14:00.094Z,1005.72
2017-11-13T07:14:40.563Z,1005.7
2017-11-13T07:15:21.036Z,1005.7
2017-11-13T07:16:01.576Z,1005.72
2017-11-13T07:16:42.034Z,1005.74
2017-11-13T07:17:22.898Z,1005.75
2017-11-13T07:18:03.619Z,1005.77
2017-11-13T07:18:44.031Z,1005.78
2017-11-13T07:19:24.573Z,1005.77
2017-11-13T07:20:05.891Z,1005.81
2017-11-13T07:20:46.783Z,1005.83
2017-11-13T07:21:27.184Z,1005.83
2017-11-13T07:22:07.929Z,1005.85
2017-11-13T07:22:49.395Z,1005.83
2017-11-13T07:23:29.804Z,1005.82
2017-11-13T07:24:10.524Z,1005.84
2017-11-13T07:24:51.149Z,1005.91
2017-11-13T07:25:31.545Z,1005.92
2017-11-13T07:26:13.114Z,1005.93
2017-11-13T07:26:55.426Z,1005.97
2017-11-13T07:27:35.801Z,1005.99
2017-11-13T07:28:16.593Z,1005.97
2017-11-13T07:28:57.882Z,1005.97
2017-11-13T07:29:38.528Z,1005.94
2017-11-13T07:30:19.104Z,1005.99
2017-11-13T07:30:59.733Z,1006.03
2017-11-13T07:31:42.611Z,1006
2017-11-13T07:33:46.945Z,1006.07
2017-11-13T07:34:45.672Z,1006.06
2017-11-13T07:35:42.563Z,1006.08
2017-11-13T07:36:39.473Z,1006.11
2017-11-13T07:37:44.780Z,1006.06
2017-11-13T07:39:45.765Z,1006.15
2017-11-13T07:40:41.223Z,1006.18
2017-11-13T07:41:47.427Z,1006.21
2017-11-13T07:42:27.925Z,1006.22
2017-11-13T07:43:09.443Z,1006.25
2017-11-13T07:43:49.844Z,1006.26
2017-11-13T07:44:30.346Z,1006.32
2017-11-13T07:45:10.877Z,1006.3
2017-11-13T07:45:51.475Z,1006.38
2017-11-13T07:46:32.757Z,1006.37
2017-11-13T07:47:13.280Z,1006.34
2017-11-13T07:47:55.141Z,1006.4
2017-11-13T07:48:35.221Z,1006.3
2017-11-13T07:49:15.684Z,1006.41
2017-11-13T07:49:57.195Z,1006.41
2017-11-13T07:50:38.115Z,1006.44
2017-11-13T07:51:19.876Z,1006.42
2017-11-13T07:52:07.156Z,1006.45
2017-11-13T07:52:52.464Z,1006.43
2017-11-13T07:55:27.308Z,1006.51
2017-11-13T07:59:06.968Z,1006.5
2017-11-13T08:00:19.725Z,1006.49
2017-11-13T08:01:17.629Z,1006.51
2017-11-13T08:02:37.917Z,1006.55
2017-11-13T08:04:05.730Z,1006.52
2017-11-13T08:05:11.157Z,1006.38
2017-11-13T08:10:30.671Z,1006.54
2017-11-13T08:12:33.477Z,1006.56
2017-11-13T08:13:49.392Z,1006.52
2017-11-13T08:14:41.683Z,1006.59
2017-11-13T08:15:21.986Z,1006.6
2017-11-13T08:16:02.781Z,1006.68
2017-11-13T08:20:54.653Z,1006.72
2017-11-13T08:21:35.232Z,1006.71
2017-11-13T08:22:17.210Z,1006.66
2017-11-13T08:22:58.144Z,1006.75
2017-11-13T08:23:39.071Z,1006.7
2017-11-13T08:24:20.728Z,1006.66
2017-11-13T08:25:01.907Z,1006.8
2017-11-13T08:25:42.611Z,1006.8
2017-11-13T08:26:26.191Z,1006.82
2017-11-13T08:27:07.279Z,1006.83
2017-11-13T08:27:49.473Z,1006.84
2017-11-13T08:28:30.912Z,1006.8
2017-11-13T08:29:11.920Z,1006.87
2017-11-13T08:29:52.701Z,1006.82
2017-11-13T08:30:34.071Z,1006.85
2017-11-13T08:31:15.165Z,1006.85
2017-11-13T08:31:56.081Z,1006.83
2017-11-13T08:32:37.696Z,1006.89
2017-11-13T08:35:02.181Z,1006.9
2017-11-13T08:35:45.753Z,1006.89
2017-11-13T08:36:26.155Z,1006.89
2017-11-13T08:37:07.401Z,1006.81
2017-11-13T08:37:50.161Z,1006.87
2017-11-13T08:38:31.398Z,1006.94
2017-11-13T08:39:13.678Z,1006.96
2017-11-13T08:41:33.880Z,1006.96
2017-11-13T08:42:42.471Z,1007.01
2017-11-13T08:43:39.538Z,1007.05
2017-11-13T08:44:40.947Z,1007.11
2017-11-13T08:45:49.567Z,1007.11
2017-11-13T08:46:47.670Z,1007.13
2017-11-13T08:47:46.373Z,1007.13
2017-11-13T08:48:46.363Z,1007.17
2017-11-13T08:51:38.768Z,1007.22
2017-11-13T08:52:52.403Z,1007.22
2017-11-13T08:53:53.892Z,1007.28
2017-11-13T08:54:55.225Z,1007.2
2017-11-13T08:57:44.075Z,1007.23
2017-11-13T08:58:52.852Z,1007.31
2017-11-13T09:01:38.002Z,1007.33
2017-11-13T09:02:30.188Z,1007.35
2017-11-13T09:05:07.087Z,1007.34
2017-11-13T09:05:56.217Z,1007.37
2017-11-13T09:06:36.884Z,1007.4
2017-11-13T09:07:17.220Z,1007.37
2017-11-13T09:08:00.354Z,1007.39
2017-11-13T09:08:40.924Z,1007.38
2017-11-13T09:09:22.528Z,1007.36
2017-11-13T09:10:03.875Z,1007.37
2017-11-13T09:10:44.404Z,1007.34
2017-11-13T09:11:25.156Z,1007.39
2017-11-13T09:12:05.609Z,1007.4
2017-11-13T09:12:46.463Z,1007.43
2017-11-13T09:13:27.130Z,1007.43
2017-11-13T09:14:07.599Z,1007.39
2017-11-13T09:14:48.255Z,1007.43
2017-11-13T09:15:33.502Z,1007.42
2017-11-13T09:16:14.464Z,1007.43
2017-11-13T09:16:55.073Z,1007.4
2017-11-13T09:17:42.830Z,1007.45
2017-11-13T09:18:24.159Z,1007.46
2017-11-13T09:19:04.125Z,1007.49
2017-11-13T09:19:44.577Z,1007.43
2017-11-13T09:20:25.163Z,1007.52
2017-11-13T09:21:05.841Z,1007.54
2017-11-13T09:21:46.180Z,1007.52
2017-11-13T09:22:26.888Z,1007.53
2017-11-13T09:23:27.541Z,1007.59
2017-11-13T09:24:08.680Z,1007.56
2017-11-13T09:25:18.896Z,1007.62
2017-11-13T09:26:01.339Z,1007.51
2017-11-13T09:28:25.087Z,1007.61
2017-11-13T09:29:09.673Z,1007.63
2017-11-13T09:29:50.988Z,1007.6
2017-11-13T09:30:31.580Z,1007.6
2017-11-13T09:31:12.828Z,1007.7
2017-11-13T09:31:53.522Z,1007.61
2017-11-13T09:32:33.971Z,1007.64
2017-11-13T09:33:14.505Z,1007.67
2017-11-13T09:35:37.974Z,1007.7
2017-11-13T09:36:16.929Z,1007.73
2017-11-13T09:36:57.334Z,1007.77
2017-11-13T09:37:38.004Z,1007.73
2017-11-13T09:38:18.822Z,1007.74
2017-11-13T09:39:00.227Z,1007.75
2017-11-13T09:39:41.184Z,1007.79
2017-11-13T09:40:21.758Z,1007.77
2017-11-13T09:41:03.167Z,1007.72
2017-11-13T09:41:43.692Z,1007.75
2017-11-13T09:42:24.150Z,1007.75